Time;durP1;ratioP1;P1;durP2;ratioP2;P2;SDS_P1;SDS_P2;PMS_P1;PMS_P2;Temp;Humidity;BMP_temperature;BMP_pressure;BME280_temperature;BME280_humidity;BME280_pressure;Samples;Min_cycle;Max_cycle;Signal;HPM_P1;HPM_P2
2023/02/15 00:01:35;;;;;;;92.30;45.90;;;;;;;-0.52;74.96;102021.20;128462;1272;517376;-67
2023/02/15 00:04:56;;;;;;;93.40;47.70;;;;;;;-0.53;74.92;102023.99;129442;1284;114857;-67
2023/02/15 00:08:13;;;;;;;124.00;55.40;;;;;;;-0.55;75.14;102023.75;129519;1277;127458;-67
2023/02/15 00:12:12;;;;;;;121.40;58.50;;;;;;;-0.59;75.09;102023.48;129440;1265;115447;-66
2023/02/15 00:15:11;;;;;;;99.30;50.20;;;;;;;-0.59;75.34;102025.07;129542;1277;115032;-67
2023/02/15 00:19:03;;;;;;;;;;;;;;;;;;;;;
2023/02/15 00:22:42;;;;;;;96.10;48.20;;;;;;;-0.63;75.59;102021.64;129333;1260;114883;-67
2023/02/15 00:26:13;;;;;;;;;;;;;;;;;;;;;
2023/02/15 00:29:39;;;;;;;336.80;136.30;;;;;;;-0.67;75.69;102014.70;129562;1284;115316;-67
2023/02/15 00:33:12;;;;;;;;;;;;;;;;;;;;;
2023/02/15 00:37:15;;;;;;;;;;;;;;;;;;;;;
2023/02/15 00:41:05;;;;;;;134.20;66.70;;;;;;;-0.71;75.90;102003.73;129415;1284;114806;-68
2023/02/15 00:44:58;;;;;;;165.00;81.50;;;;;;;-0.73;76.20;101997.88;128916;1273;128091;-66
2023/02/15 00:48:31;;;;;;;148.40;76.00;;;;;;;-0.75;76.40;101997.83;127894;1283;116432;-67
2023/02/15 00:52:35;;;;;;;136.70;68.60;;;;;;;-0.78;76.01;101999.69;128259;1279;116462;-68
2023/02/15 00:56:36;;;;;;;122.10;56.40;;;;;;;-0.80;76.12;101999.45;126287;1297;114869;-66
2023/02/15 01:00:38;;;;;;;96.90;48.40;;;;;;;-0.83;76.08;102002.20;125146;1303;114935;-67
2023/02/15 01:09:14;;;;;;;;;;;;;;;;;;;;;
2023/02/15 01:13:07;;;;;;;104.50;51.10;;;;;;;-0.93;76.39;102002.32;128533;1276;129068;-66
2023/02/15 01:17:11;;;;;;;110.30;58.20;;;;;;;-0.97;76.54;102001.84;127886;1281;115314;-67
2023/02/15 01:21:13;;;;;;;109.30;56.70;;;;;;;-1.01;76.51;101992.63;122630;1289;5444337;-67
2023/02/15 01:29:23;;;;;;;92.10;46.70;;;;;;;-1.07;76.28;101983.73;126416;1297;635776;-64
2023/02/15 01:32:30;;;;;;;90.00;46.30;;;;;;;-1.13;76.22;101975.83;129228;1287;129715;-65
2023/02/15 01:36:38;;;;;;;92.80;45.90;;;;;;;-1.19;76.12;101969.55;129137;1266;115224;-65
2023/02/15 01:40:40;;;;;;;65.10;32.50;;;;;;;-1.27;75.72;101963.02;128577;1272;115288;-64
2023/02/15 01:44:44;;;;;;;84.00;41.60;;;;;;;-1.36;75.99;101956.48;123411;1302;115219;-65
2023/02/15 01:52:40;;;;;;;86.30;42.80;;;;;;;-1.53;75.94;101952.55;125292;1322;115198;-66
2023/02/15 01:56:42;;;;;;;85.80;44.30;;;;;;;-1.61;75.78;101950.58;124477;1304;129861;-68
2023/02/15 02:00:41;;;;;;;;;;;;;;;;;;;;;
2023/02/15 02:05:28;;;;;;;86.60;43.40;;;;;;;-1.73;76.10;101944.12;126040;1298;636212;-65
2023/02/15 02:08:46;;;;;;;83.10;42.30;;;;;;;-1.81;75.78;101952.11;128771;1292;130587;-65
2023/02/15 02:12:50;;;;;;;84.10;42.20;;;;;;;-1.86;76.42;101949.36;128634;1292;115313;-65
2023/02/15 02:17:27;;;;;;;105.90;50.70;;;;;;;-1.87;77.02;101941.11;126951;1281;5505191;-67
2023/02/15 02:21:50;;;;;;;104.60;51.30;;;;;;;-1.85;77.47;101929.79;127456;1302;114875;-67
2023/02/15 02:25:55;;;;;;;99.60;53.40;;;;;;;-1.82;77.41;101927.05;127419;1304;129028;-66
2023/02/15 02:30:14;;;;;;;143.00;67.60;;;;;;;-1.80;77.70;101918.86;127406;1299;115262;-67
2023/02/15 02:34:49;;;;;;;118.20;56.30;;;;;;;-1.77;78.13;101916.14;127487;1286;114952;-67
2023/02/15 02:39:34;;;;;;;107.60;50.70;;;;;;;-1.78;77.34;101910.36;127572;1274;114971;-67
2023/02/15 02:43:28;;;;;;;;;;;;;;;;;;;;;
2023/02/15 02:47:26;;;;;;;;;;;;;;;;;;;;;
2023/02/15 02:51:22;;;;;;;;;;;;;;;;;;;;;
2023/02/15 02:55:24;;;;;;;110.00;54.00;;;;;;;-1.73;78.75;101887.20;127880;1288;114975;-66
2023/02/15 02:59:27;;;;;;;99.50;51.60;;;;;;;-1.71;78.68;101882.18;126489;1309;114762;-67
2023/02/15 03:03:21;;;;;;;;;;;;;;;;;;;;;
2023/02/15 03:07:06;;;;;;;110.90;53.80;;;;;;;-1.65;78.92;101885.48;124667;1311;129954;-67
2023/02/15 03:16:25;;;;;;;97.80;49.90;;;;;;;-1.59;78.64;101879.55;126264;1295;635502;-66
2023/02/15 03:19:46;;;;;;;;;;;;;;;;;;;;;
2023/02/15 03:23:39;;;;;;;;;;;;;;;;;;;;;
2023/02/15 03:27:59;;;;;;;80.90;42.10;;;;;;;-1.58;79.28;101881.80;124948;1272;5501348;-66
2023/02/15 03:31:44;;;;;;;85.70;42.00;;;;;;;-1.57;79.00;101880.60;128818;1279;114733;-66
2023/02/15 03:41:09;;;;;;;78.10;41.00;;;;;;;-1.57;79.50;101875.88;129298;1290;114898;-66
2023/02/15 03:44:26;;;;;;;71.80;38.30;;;;;;;-1.57;79.61;101877.29;129018;1272;127904;-67
2023/02/15 03:48:31;;;;;;;;;;;;;;;;;;;;;
2023/02/15 03:52:25;;;;;;;68.60;33.80;;;;;;;-1.58;78.82;101876.02;127107;1299;115262;-67
2023/02/15 03:56:29;;;;;;;72.20;33.90;;;;;;;-1.57;79.63;101873.23;126625;1307;114903;-64
2023/02/15 04:04:36;;;;;;;63.40;30.20;;;;;;;-1.55;79.76;101872.59;125065;1307;129872;-67
2023/02/15 04:10:51;;;;;;;58.90;30.70;;;;;;;-1.53;79.81;101870.36;124877;1306;116703;-66
2023/02/15 04:16:36;;;;;;;57.90;31.90;;;;;;;-1.48;80.14;101858.58;126304;1304;635942;-62
2023/02/15 04:28:25;;;;;;;59.20;30.40;;;;;;;-1.47;80.39;101838.79;125270;1266;5512438;-65
2023/02/15 04:32:12;;;;;;;60.30;31.70;;;;;;;-1.47;80.23;101835.83;128058;1280;114912;-65
2023/02/15 04:36:13;;;;;;;63.70;31.90;;;;;;;-1.45;80.01;101833.77;128239;1297;114905;-68
2023/02/15 04:40:15;;;;;;;64.90;33.50;;;;;;;-1.44;80.28;101838.88;127053;1292;114945;-66
2023/02/15 04:44:16;;;;;;;74.20;34.70;;;;;;;-1.43;80.21;101838.73;126490;1292;129789;-66
2023/02/15 04:47:58;;;;;;;65.40;29.00;;;;;;;-1.44;80.08;101839.93;125679;1301;115250;-66
2023/02/15 04:51:40;;;;;;;72.20;36.60;;;;;;;-1.44;80.01;101835.03;125449;1323;114856;-64
2023/02/15 04:55:13;;;;;;;;;;;;;;;;;;;;;
2023/02/15 05:03:42;;;;;;;66.10;36.80;;;;;;;-1.42;80.41;101847.86;126262;1294;635856;-66
2023/02/15 05:07:44;;;;;;;73.70;36.80;;;;;;;-1.45;79.84;101854.80;127832;1281;128208;-65
2023/02/15 05:11:35;;;;;;;;;;;;;;;;;;;;;
2023/02/15 05:15:29;;;;;;;75.60;37.90;;;;;;;-1.46;80.58;101844.95;124312;1277;5623130;-65
2023/02/15 05:19:24;;;;;;;70.00;37.80;;;;;;;-1.47;80.03;101837.92;127258;1288;114957;-65
2023/02/15 05:23:14;;;;;;;;;;;;;;;;;;;;;
2023/02/15 05:30:59;;;;;;;72.20;37.90;;;;;;;-1.49;80.32;101832.62;125981;1295;130003;-64
2023/02/15 05:38:37;;;;;;;;;;;;;;;;;;;;;
2023/02/15 05:46:43;;;;;;;73.10;37.90;;;;;;;-1.51;80.21;101828.19;128123;1293;115237;-64
2023/02/15 05:54:35;;;;;;;80.60;41.30;;;;;;;-1.55;80.35;101818.11;123188;1299;114949;-66
2023/02/15 05:58:36;;;;;;;79.90;43.50;;;;;;;-1.54;80.45;101823.73;126719;1299;114903;-67
2023/02/15 06:02:37;;;;;;;90.00;44.20;;;;;;;-1.54;80.47;101827.05;125612;1310;115026;-66
2023/02/15 06:06:21;;;;;;;86.70;43.70;;;;;;;-1.54;80.48;101829.34;125377;1306;130373;-66
2023/02/15 06:14:39;;;;;;;;;;;;;;;;;;;;;
2023/02/15 06:18:43;;;;;;;90.60;45.40;;;;;;;-1.51;80.78;101830.64;128699;1277;127925;-67
2023/02/15 06:22:46;;;;;;;87.10;44.50;;;;;;;-1.49;80.63;101834.91;127528;1306;116453;-67
2023/02/15 06:26:47;;;;;;;90.70;45.30;;;;;;;-1.47;80.23;101836.68;121964;1310;5627267;-67
2023/02/15 06:30:48;;;;;;;89.00;44.40;;;;;;;-1.44;80.80;101841.33;125011;1327;114978;-66
2023/02/15 06:34:47;;;;;;;;;;;;;;;;;;;;;
2023/02/15 06:42:18;;;;;;;91.30;45.10;;;;;;;-1.26;80.79;101831.78;126287;1294;635974;-66
2023/02/15 06:45:32;;;;;;;88.40;43.20;;;;;;;-1.22;80.84;101830.11;129017;1272;127889;-66
2023/02/15 06:49:34;;;;;;;;;;;;;;;;;;;;;
2023/02/15 06:53:37;;;;;;;;;;;;;;;;;;;;;
2023/02/15 06:57:41;;;;;;;83.40;42.60;;;;;;;-0.96;81.36;101831.94;124295;1282;5407140;-66
2023/02/15 07:01:46;;;;;;;90.20;44.90;;;;;;;-0.84;81.21;101830.09;127225;1306;115008;-66
2023/02/15 07:05:49;;;;;;;;;;;;;;;;;;;;;
2023/02/15 07:18:18;;;;;;;85.20;45.90;;;;;;;-0.24;81.28;101809.93;125658;1303;637466;-66
2023/02/15 07:22:20;;;;;;;89.40;47.60;;;;;;;-0.10;81.36;101808.09;128579;1284;128982;-66
2023/02/15 07:26:23;;;;;;;86.80;45.90;;;;;;;0.05;81.34;101806.96;127935;1286;115528;-66
2023/02/15 07:30:27;;;;;;;90.30;48.00;;;;;;;0.20;81.26;101803.00;122948;1301;5385200;-66
2023/02/15 07:34:29;;;;;;;78.80;43.30;;;;;;;0.34;81.26;101804.12;125034;1308;114815;-66
2023/02/15 07:42:42;;;;;;;;;;;;;;;;;;;;;
2023/02/15 07:50:50;;;;;;;92.30;47.00;;;;;;;1.25;81.43;101793.52;127129;1307;114942;-67
2023/02/15 07:55:12;;;;;;;82.10;45.10;;;;;;;1.55;81.25;101783.50;121839;1304;5417606;-68
2023/02/15 08:03:55;;;;;;;70.40;40.00;;;;;;;2.13;80.84;101773.71;126534;1296;636212;-66
2023/02/15 08:07:39;;;;;;;75.50;41.00;;;;;;;2.39;80.52;101773.40;128257;1282;130003;-67
2023/02/15 08:12:01;;;;;;;74.10;42.00;;;;;;;2.68;80.26;101769.55;127347;1286;115451;-67
2023/02/15 08:16:04;;;;;;;69.10;39.10;;;;;;;2.95;79.80;101765.48;123738;1286;5527593;-68
2023/02/15 08:20:08;;;;;;;71.30;41.00;;;;;;;3.24;79.75;101758.92;126385;1295;114899;-66
2023/02/15 08:24:09;;;;;;;64.90;36.70;;;;;;;3.49;79.21;101750.90;126207;1298;114935;-67
2023/02/15 08:28:11;;;;;;;60.40;34.70;;;;;;;3.73;78.53;101749.20;125638;1301;114919;-66
2023/02/15 08:36:33;;;;;;;58.60;34.80;;;;;;;4.21;77.87;101739.09;126009;1301;636234;-66
2023/02/15 08:49:00;;;;;;;57.30;33.80;;;;;;;4.58;76.39;101723.40;125756;1297;636016;-66
2023/02/15 08:53:03;;;;;;;54.60;32.40;;;;;;;4.57;75.92;101726.77;127063;1283;126907;-67
2023/02/15 09:05:43;;;;;;;57.30;33.90;;;;;;;4.59;75.32;101728.19;129128;1270;128240;-67
2023/02/15 09:09:47;;;;;;;57.10;32.20;;;;;;;4.66;75.61;101720.55;128031;1282;115912;-67
2023/02/15 09:13:55;;;;;;;54.30;32.80;;;;;;;4.78;75.40;101719.83;122816;1312;5436022;-68
2023/02/15 09:17:58;;;;;;;56.60;32.80;;;;;;;4.76;73.55;101716.64;125744;1303;114920;-67
2023/02/15 09:21:58;;;;;;;52.90;32.20;;;;;;;4.76;74.56;101710.98;125711;1298;114866;-67
2023/02/15 09:30:34;;;;;;;54.70;33.50;;;;;;;4.95;74.00;101702.42;125866;1301;639633;-66
2023/02/15 09:35:00;;;;;;;54.00;31.10;;;;;;;5.02;73.72;101696.38;128006;1277;128941;-67
2023/02/15 09:38:44;;;;;;;57.20;32.00;;;;;;;5.12;73.69;101695.80;128816;1272;114904;-67
2023/02/15 09:43:23;;;;;;;58.80;31.90;;;;;;;5.22;73.16;101698.42;124119;1279;5682661;-68
2023/02/15 09:47:27;;;;;;;55.70;31.60;;;;;;;5.27;72.93;101694.49;127877;1282;114954;-67
2023/02/15 09:51:40;;;;;;;58.70;33.90;;;;;;;5.36;72.97;101694.09;127907;1280;114816;-68
2023/02/15 09:55:51;;;;;;;57.50;34.00;;;;;;;5.51;72.76;101693.83;126905;1286;114952;-68
2023/02/15 09:59:50;;;;;;;61.20;35.60;;;;;;;5.59;72.49;101684.40;126863;1288;129878;-66
2023/02/15 10:04:02;;;;;;;58.50;32.10;;;;;;;5.62;71.67;101681.19;127275;1288;114965;-67
2023/02/15 10:08:18;;;;;;;53.20;31.90;;;;;;;5.67;71.56;101674.23;126370;1297;114799;-67
2023/02/15 10:12:29;;;;;;;52.60;33.40;;;;;;;5.67;71.25;101676.36;126655;1289;115030;-66
2023/02/15 10:21:02;;;;;;;55.90;32.80;;;;;;;5.72;71.23;101668.17;126233;1304;636076;-68
2023/02/15 10:25:11;;;;;;;50.20;30.70;;;;;;;5.73;71.09;101658.23;129411;1271;128033;-68
2023/02/15 10:29:16;;;;;;;60.30;34.30;;;;;;;5.78;71.01;101653.94;129325;1271;115276;-64
2023/02/15 10:33:18;;;;;;;;;;;;;;;;;;;;;
2023/02/15 10:37:22;;;;;;;;;;;;;;;;;;;;;
2023/02/15 10:41:41;;;;;;;;;;;;;;;;;;;;;
2023/02/15 10:45:37;;;;;;;52.20;32.10;;;;;;;5.87;70.38;101629.23;129763;1257;128170;-68
2023/02/15 10:49:38;;;;;;;53.40;32.80;;;;;;;5.95;70.53;101625.96;129944;1261;115255;-68
2023/02/15 10:53:47;;;;;;;;;;;;;;;;;;;;;
2023/02/15 10:57:57;;;;;;;48.50;29.00;;;;;;;6.06;69.68;101617.20;129875;1267;114868;-67
2023/02/15 11:02:12;;;;;;;55.20;31.20;;;;;;;6.00;69.03;101618.50;129762;1264;114872;-67
2023/02/15 11:06:18;;;;;;;52.50;30.60;;;;;;;5.95;69.08;101610.54;129778;1263;128697;-67
2023/02/15 11:10:06;;;;;;;52.30;33.00;;;;;;;5.93;69.20;101604.00;129771;1263;116442;-67
2023/02/15 11:14:03;;;;;;;;;;;;;;;;;;;;;
2023/02/15 11:18:07;;;;;;;51.30;31.00;;;;;;;5.96;69.07;101595.81;128295;1279;116423;-67
2023/02/15 11:22:17;;;;;;;47.50;28.10;;;;;;;5.90;68.61;101589.48;128401;1274;115809;-67
2023/02/15 11:26:18;;;;;;;53.10;33.20;;;;;;;5.88;68.91;101582.94;127610;1280;128640;-67
2023/02/15 11:30:28;;;;;;;;;;;;;;;;;;;;;
2023/02/15 11:38:03;;;;;;;;;;;;;;;;;;;;;
2023/02/15 11:42:08;;;;;;;59.30;33.90;;;;;;;5.95;68.66;101567.27;125697;1308;115070;-67
2023/02/15 11:46:13;;;;;;;56.40;32.20;;;;;;;5.98;68.58;101558.90;125236;1304;130693;-67
2023/02/15 11:50:08;;;;;;;;;;;;;;;;;;;;;
2023/02/15 11:53:56;;;;;;;;;;;;;;;6.01;68.14;101542.42;125052;1304;114810;-66
2023/02/15 11:58:00;;;;;;;62.30;36.80;;;;;;;6.04;68.42;101542.92;125170;1306;114841;-66
2023/02/15 12:02:29;;;;;;;58.90;34.40;;;;;;;6.09;68.25;101537.55;125293;1304;115069;-65
2023/02/15 12:11:06;;;;;;;65.40;37.90;;;;;;;6.17;68.20;101529.48;126460;1297;635669;-67
2023/02/15 12:15:12;;;;;;;59.00;35.40;;;;;;;6.19;67.83;101527.52;129137;1267;129124;-64
2023/02/15 12:19:20;;;;;;;62.90;36.80;;;;;;;6.22;67.91;101527.28;127943;1291;115304;-67
2023/02/15 12:23:32;;;;;;;63.80;37.70;;;;;;;6.29;67.90;101520.82;123076;1289;5438482;-65
2023/02/15 12:27:45;;;;;;;72.30;40.70;;;;;;;6.31;67.72;101517.77;126118;1299;114935;-67
2023/02/15 12:31:34;;;;;;;;;;;;;;;;;;;;;
2023/02/15 12:35:50;;;;;;;70.20;41.00;;;;;;;6.35;67.67;101513.48;124852;1311;116510;-66
2023/02/15 12:40:02;;;;;;;66.20;39.10;;;;;;;6.41;67.90;101511.80;124053;1319;129730;-65
2023/02/15 12:48:58;;;;;;;60.50;36.40;;;;;;;6.53;67.61;101496.73;126204;1294;637538;-67
2023/02/15 12:53:07;;;;;;;62.20;36.70;;;;;;;6.57;67.00;101489.77;128406;1273;127483;-67
2023/02/15 12:57:10;;;;;;;53.20;32.20;;;;;;;6.59;67.09;101486.00;128077;1281;115185;-66
2023/02/15 13:01:21;;;;;;;63.30;35.10;;;;;;;6.63;66.67;101483.64;122548;1293;5527843;-67
2023/02/15 13:05:25;;;;;;;59.00;34.20;;;;;;;6.66;66.56;101479.34;126487;1313;114898;-68
2023/02/15 13:13:28;;;;;;;;;;;;;;;;;;;;;
2023/02/15 13:17:25;;;;;;;;;;;;;;;;;;;;;
2023/02/15 13:25:53;;;;;;;;;;;;;;;;;;;;;
2023/02/15 13:30:02;;;;;;;60.70;32.80;;;;;;;6.82;66.07;101462.77;127339;1306;127944;-68
2023/02/15 13:34:07;;;;;;;57.60;32.50;;;;;;;6.84;65.93;101457.42;126764;1301;115253;-68
2023/02/15 13:38:17;;;;;;;58.00;33.80;;;;;;;6.85;65.96;101452.43;122969;1290;5446030;-68
2023/02/15 13:42:20;;;;;;;56.50;35.10;;;;;;;6.88;65.74;101451.51;127122;1290;114914;-70
2023/02/15 13:46:34;;;;;;;55.90;33.60;;;;;;;6.90;65.74;101447.20;126987;1286;114956;-68
2023/02/15 13:50:46;;;;;;;;;;;;;;;;;;;;;
2023/02/15 13:54:59;;;;;;;55.30;33.10;;;;;;;6.98;65.90;101438.90;126714;1291;636095;-70
2023/02/15 13:59:09;;;;;;;55.40;32.30;;;;;;;6.99;65.71;101436.05;129391;1285;127793;-69
2023/02/15 14:03:16;;;;;;;;;;;;;;;;;;;;;
2023/02/15 14:07:41;;;;;;;52.30;31.00;;;;;;;6.99;65.60;101428.23;125303;1273;5527075;-69
2023/02/15 14:11:53;;;;;;;49.30;30.30;;;;;;;6.99;65.45;101429.83;129253;1273;114932;-69
2023/02/15 14:20:17;;;;;;;;;;;;;;;;;;;;;
2023/02/15 14:24:48;;;;;;;53.60;31.70;;;;;;;7.02;65.37;101427.65;128520;1296;128870;-68
2023/02/15 14:28:50;;;;;;;;;;;;;;;;;;;;;
2023/02/15 14:33:00;;;;;;;60.60;32.20;;;;;;;7.02;65.00;101424.64;128462;1275;114940;-69
2023/02/15 14:36:56;;;;;;;;;;;;;;;;;;;;;
2023/02/15 14:45:44;;;;;;;;;;;;;;;;;;;;;
2023/02/15 14:49:52;;;;;;;51.30;29.20;;;;;;;6.97;64.81;101416.01;127950;1282;115556;-69
2023/02/15 14:53:59;;;;;;;;;;;;;;;;;;;;;
2023/02/15 14:57:45;;;;;;;;;;;;;;;;;;;;;
2023/02/15 15:01:42;;;;;;;51.40;28.20;;;;;;;6.92;64.75;101416.63;128389;1284;115004;-69
2023/02/15 15:05:52;;;;;;;45.00;28.30;;;;;;;6.88;64.69;101411.35;127126;1287;129031;-69
2023/02/15 15:09:34;;;;;;;;;;;;;;;6.85;64.92;101410.52;127010;1306;114858;-70
2023/02/15 15:13:39;;;;;;;38.20;22.30;;;;;;;6.81;64.90;101400.65;127439;1283;115062;-70
2023/02/15 15:17:33;;;;;;;;;;;;;;;;;;;;;
2023/02/15 15:21:36;;;;;;;;;;;;;;;;;;;;;
2023/02/15 15:25:35;;;;;;;;;;;;;;;;;;;;;
2023/02/15 15:29:38;;;;;;;55.50;31.40;;;;;;;6.56;64.97;101406.35;126533;1310;115340;-69
2023/02/15 15:33:37;;;;;;;;;;;;;;;;;;;;;
2023/02/15 15:37:58;;;;;;;59.30;32.80;;;;;;;6.39;65.09;101407.49;125674;1311;115057;-69
2023/02/15 15:41:58;;;;;;;57.40;29.90;;;;;;;6.29;64.82;101403.02;125928;1310;114985;-71
2023/02/15 15:46:24;;;;;;;52.30;29.00;;;;;;;6.19;65.40;101400.30;125968;1291;128093;-70
2023/02/15 15:50:25;;;;;;;26.40;14.20;;;;;;;6.09;65.46;101393.00;126313;1314;116484;-70
2023/02/15 15:54:11;;;;;;;60.50;33.90;;;;;;;5.98;65.56;101394.54;125463;1297;115034;-70
2023/02/15 15:58:15;;;;;;;69.60;36.30;;;;;;;5.87;65.68;101391.29;125839;1302;114936;-71
2023/02/15 16:02:01;;;;;;;70.60;36.20;;;;;;;5.73;65.63;101391.28;126294;1295;115065;-69
2023/02/15 16:06:02;;;;;;;;;;;;;;;;;;;;;
2023/02/15 16:10:10;;;;;;;71.10;37.30;;;;;;;5.47;66.21;101394.23;127212;1288;115266;-69
2023/02/15 16:14:02;;;;;;;75.60;39.50;;;;;;;5.34;66.63;101391.90;127887;1283;114973;-68
2023/02/15 16:18:04;;;;;;;74.90;40.50;;;;;;;5.22;66.71;101388.29;127886;1282;114986;-67
2023/02/15 16:22:08;;;;;;;81.00;41.00;;;;;;;5.09;67.01;101385.92;127226;1288;114908;-68
2023/02/15 16:26:06;;;;;;;;;;;;;;;;;;;;;
2023/02/15 16:30:07;;;;;;;69.50;37.80;;;;;;;4.83;67.20;101372.88;127167;1288;115246;-67
2023/02/15 16:33:59;;;;;;;71.80;38.20;;;;;;;4.70;67.29;101369.09;127795;1284;114952;-67
2023/02/15 16:38:13;;;;;;;76.00;39.20;;;;;;;4.57;67.51;101367.42;127772;1279;114939;-67
2023/02/15 16:42:14;;;;;;;72.60;38.90;;;;;;;4.44;67.60;101368.05;126942;1291;114894;-66
2023/02/15 16:46:08;;;;;;;73.40;37.90;;;;;;;4.29;67.62;101367.44;126269;1307;128115;-67
2023/02/15 16:50:07;;;;;;;73.80;39.50;;;;;;;4.14;67.72;101368.58;126170;1295;114836;-67
2023/02/15 16:54:31;;;;;;;78.90;39.80;;;;;;;3.97;67.83;101365.14;125616;1315;115004;-68
2023/02/15 16:58:09;;;;;;;75.00;37.70;;;;;;;3.82;67.98;101366.63;125472;1307;115034;-67
2023/02/15 17:01:56;;;;;;;76.30;39.40;;;;;;;3.67;67.97;101367.05;125320;1306;115010;-68
2023/02/15 17:10:02;;;;;;;68.50;38.30;;;;;;;3.41;68.32;101369.42;125922;1291;639970;-67
2023/02/15 17:13:55;;;;;;;78.90;40.60;;;;;;;3.26;68.35;101368.23;128341;1296;129251;-66
2023/02/15 17:18:03;;;;;;;80.30;40.20;;;;;;;3.10;68.25;101360.84;127549;1286;115263;-67
2023/02/15 17:22:14;;;;;;;81.70;39.90;;;;;;;2.93;68.52;101361.55;127053;1289;114858;-67
2023/02/15 17:26:07;;;;;;;74.10;37.50;;;;;;;2.75;68.49;101359.80;122580;1308;114953;-69
2023/02/15 17:30:07;;;;;;;67.50;36.60;;;;;;;2.59;68.82;101362.10;126099;1298;115111;-68
2023/02/15 17:34:10;;;;;;;74.30;38.70;;;;;;;2.44;69.01;101361.02;126112;1299;114884;-68
2023/02/15 17:38:03;;;;;;;;;;;;;;;;;;;;;
2023/02/15 17:42:09;;;;;;;79.00;38.80;;;;;;;2.16;69.22;101355.86;124938;1329;115012;-69
2023/02/15 17:46:15;;;;;;;68.20;34.70;;;;;;;2.02;69.18;101351.42;124786;1322;114978;-68
2023/02/15 17:58:51;;;;;;;99.70;51.70;;;;;;;1.69;70.52;101337.40;128162;1279;127889;-68
2023/02/15 18:14:32;;;;;;;;;;;;;;;;;;;;;
2023/02/15 18:18:16;;;;;;;118.30;60.50;;;;;;;1.66;72.20;101330.00;128243;1283;115003;-67
2023/02/15 18:22:03;;;;;;;121.10;60.70;;;;;;;1.62;71.99;101326.45;128208;1276;129008;-67
2023/02/15 18:25:57;;;;;;;111.30;56.40;;;;;;;1.55;71.54;101327.66;127429;1295;114896;-71
2023/02/15 18:29:40;;;;;;;;;;;;;;;;;;;;;
2023/02/15 18:36:59;;;;;;;135.10;65.70;;;;;;;1.25;71.64;101324.00;126011;1294;114799;-70
2023/02/15 18:40:43;;;;;;;128.30;65.50;;;;;;;1.18;71.83;101323.08;127041;1287;127773;-68
2023/02/15 18:44:29;;;;;;;136.60;68.40;;;;;;;1.09;71.85;101319.15;126797;1287;114814;-68
2023/02/15 18:48:18;;;;;;;;;;;;;;;;;;;;;
2023/02/15 18:52:22;;;;;;;143.70;71.40;;;;;;;0.92;72.14;101317.48;126762;1305;114865;-67
2023/02/15 18:56:06;;;;;;;154.80;73.30;;;;;;;0.85;72.45;101319.88;125946;1313;115067;-67
2023/02/15 18:59:47;;;;;;;145.30;71.30;;;;;;;0.79;72.47;101318.95;126215;1292;128739;-67
2023/02/15 19:03:49;;;;;;;129.00;64.10;;;;;;;0.74;72.88;101311.90;125941;1302;115306;-67
2023/02/15 19:07:48;;;;;;;;;;;;;;;;;;;;;
2023/02/15 19:11:59;;;;;;;134.70;62.20;;;;;;;0.68;72.94;101304.27;125845;1315;115063;-72
2023/02/15 19:16:03;;;;;;;120.90;57.20;;;;;;;0.64;72.94;101293.72;125646;1321;114985;-73
2023/02/15 19:19:49;;;;;;;127.10;60.70;;;;;;;0.64;74.00;101290.02;124845;1319;129023;-72
2023/02/15 19:23:00;;;;;;;128.80;63.70;;;;;;;0.68;73.96;101294.09;124784;1307;115344;-73
2023/02/15 19:26:01;;;;;;;125.70;59.10;;;;;;;0.69;74.35;101291.63;124735;1306;114947;-71
2023/02/15 19:29:53;;;;;;;118.70;53.20;;;;;;;0.71;74.08;101288.48;124951;1309;115057;-69
2023/02/15 19:33:01;;;;;;;129.60;62.00;;;;;;;0.76;74.53;101283.41;125775;1313;115051;-70
2023/02/15 19:36:46;;;;;;;174.50;88.30;;;;;;;0.81;74.71;101284.52;126021;1315;128078;-68
2023/02/15 19:39:56;;;;;;;192.70;102.40;;;;;;;0.84;74.72;101285.05;125691;1304;115363;-64
2023/02/15 19:43:33;;;;;;;;;;;;;;;;;;;;;
2023/02/15 19:47:33;;;;;;;142.10;74.70;;;;;;;0.86;74.44;101284.36;126712;1295;114865;-70
2023/02/15 19:51:33;;;;;;;;;;;;;;;;;;;;;
2023/02/15 19:55:37;;;;;;;141.90;73.00;;;;;;;0.81;74.05;101283.80;127598;1302;128339;-68
2023/02/15 19:59:20;;;;;;;146.00;75.10;;;;;;;0.77;73.94;101275.86;127184;1283;115390;-70
2023/02/15 20:03:20;;;;;;;139.80;70.20;;;;;;;0.72;73.96;101269.16;127223;1283;115033;-64
2023/02/15 20:06:51;;;;;;;139.70;68.70;;;;;;;0.67;73.75;101265.61;127223;1291;114942;-65
2023/02/15 20:11:18;;;;;;;141.20;65.50;;;;;;;0.62;73.96;101258.89;127163;1285;114883;-70
2023/02/15 20:15:07;;;;;;;119.60;60.40;;;;;;;0.58;74.08;101263.42;126988;1307;128513;-71
2023/02/15 20:18:28;;;;;;;123.50;61.70;;;;;;;0.55;74.41;101268.52;126660;1290;115274;-70
2023/02/15 20:21:32;;;;;;;121.90;59.40;;;;;;;0.53;74.31;101265.50;126956;1285;115027;-69
2023/02/15 20:24:54;;;;;;;;;;;;;;;;;;;;;
2023/02/15 20:28:52;;;;;;;118.80;56.00;;;;;;;0.48;74.45;101254.57;127096;1290;114787;-69
2023/02/15 20:32:45;;;;;;;;;;;;;;;;;;;;;
2023/02/15 20:36:39;;;;;;;122.20;58.70;;;;;;;0.44;74.39;101261.21;127049;1300;115206;-73
2023/02/15 20:40:06;;;;;;;;;;;;;;;;;;;;;
2023/02/15 20:43:51;;;;;;;121.50;60.40;;;;;;;0.38;74.41;101257.13;126457;1290;114906;-67
2023/02/15 20:47:54;;;;;;;121.50;60.30;;;;;;;0.35;74.56;101254.30;126948;1304;115329;-70
2023/02/15 20:51:41;;;;;;;;;;;;;;;;;;;;;
2023/02/15 20:55:42;;;;;;;;;;;;;;;;;;;;;
2023/02/15 20:59:30;;;;;;;116.80;55.50;;;;;;;0.21;74.38;101251.54;126114;1300;114910;-69
2023/02/15 21:03:36;;;;;;;121.70;59.10;;;;;;;0.16;74.42;101251.50;125676;1299;114978;-67
2023/02/15 21:07:10;;;;;;;;;;;;;;;;;;;;;
2023/02/15 21:11:16;;;;;;;121.00;58.30;;;;;;;0.03;74.33;101253.50;125482;1302;130118;-66
2023/02/15 21:15:05;;;;;;;130.10;60.90;;;;;;;-0.04;74.24;101251.49;124336;1330;115056;-70
2023/02/15 21:18:47;;;;;;;116.40;59.30;;;;;;;-0.11;74.28;101253.55;124816;1324;114958;-65
2023/02/15 21:22:29;;;;;;;;;;;;;;;-0.17;74.25;101253.48;124779;1309;114953;-66
2023/02/15 21:26:24;;;;;;;127.50;60.80;;;;;;;-0.23;74.24;101247.63;124312;1323;114923;-66
2023/02/15 21:30:08;;;;;;;;;;;;;;;;;;;;;
2023/02/15 21:38:07;;;;;;;;;;;;;;;;;;;;;
2023/02/15 21:54:35;;;;;;;123.20;61.60;;;;;;;-0.68;74.71;101235.91;122134;1296;115150;-68
2023/02/15 21:58:37;;;;;;;130.80;63.10;;;;;;;-0.76;74.36;101233.18;125150;1310;114904;-65
2023/02/15 22:02:38;;;;;;;128.90;60.70;;;;;;;-0.83;74.42;101224.16;124954;1309;114841;-66
2023/02/15 22:05:58;;;;;;;;;;;;;;;-0.89;74.85;101219.51;124064;1307;127392;-66
2023/02/15 22:09:59;;;;;;;;;;;;;;;;;;;;;
2023/02/15 22:14:05;;;;;;;;;;;;;;;;;;;;;
2023/02/15 22:18:34;;;;;;;132.80;63.30;;;;;;;-1.03;74.51;101208.48;125991;1294;637442;-66
2023/02/15 22:22:38;;;;;;;137.80;65.00;;;;;;;-1.10;74.79;101212.95;127181;1288;129167;-68
2023/02/15 22:26:36;;;;;;;132.30;64.30;;;;;;;-1.17;74.98;101208.14;126373;1296;114811;-65
2023/02/15 22:30:31;;;;;;;104.10;45.10;;;;;;;-1.22;74.72;101211.20;121828;1301;5438242;-68
2023/02/15 22:34:34;;;;;;;131.50;60.80;;;;;;;-1.29;74.70;101209.55;124668;1329;114926;-65
2023/02/15 22:43:04;;;;;;;141.30;64.90;;;;;;;-1.37;75.02;101200.48;126139;1293;635961;-67
2023/02/15 22:47:02;;;;;;;140.30;64.00;;;;;;;-1.45;75.11;101192.31;130197;1267;127710;-67
2023/02/15 22:51:04;;;;;;;130.70;58.30;;;;;;;-1.50;75.54;101192.25;129492;1262;115367;-65
2023/02/15 22:59:04;;;;;;;144.30;64.40;;;;;;;-1.63;74.96;101183.13;128432;1282;114811;-67
2023/02/15 23:02:58;;;;;;;;;;;;;;;;;;;;;
2023/02/15 23:07:00;;;;;;;145.60;64.80;;;;;;;-1.71;75.23;101182.65;125862;1291;130201;-67
2023/02/15 23:15:25;;;;;;;163.50;68.70;;;;;;;-1.76;75.74;101193.27;126558;1293;636430;-65
2023/02/15 23:19:28;;;;;;;164.20;70.90;;;;;;;-1.81;75.57;101195.28;128520;1282;127020;-67
2023/02/15 23:23:30;;;;;;;158.70;68.30;;;;;;;-1.84;75.83;101193.84;128891;1286;115453;-69
2023/02/15 23:31:34;;;;;;;164.80;71.70;;;;;;;-1.92;75.83;101191.62;125987;1299;115105;-67
2023/02/15 23:43:52;;;;;;;194.00;87.20;;;;;;;-2.04;75.36;101198.77;128655;1277;128912;-64